<?xml version="1.0" encoding="UTF-8" standalone="no" ?>
<gpx xmlns="http://www.topografix.com/GPX/1/1" xmlns:xsi="http://www.w3.org/2001/XMLSchema-instance" xsi:schemaLocation="http://www.topografix.com/GPX/1/1 http://www.topografix.com/GPX/1/1/gpx.xsd" version="1.1" creator="VisuGPX - https://www.visugpx.com">
  <metadata>
    <name>VILLEFORT VTT 40KM 1300M</name>
  </metadata>
  <trk>
    <name><![CDATA[VILLEFORT VTT 40KM 1300M]]></name>
    <trkseg>
      <trkpt lat="44.44147" lon="3.9323">
        <ele>598</ele>
        <time>2019-07-09T22:27:19 02:00</time>
      </trkpt>
      <trkpt lat="44.43589" lon="3.91814">
        <ele>647</ele>
        <time>2019-07-09T22:27:24 02:00</time>
      </trkpt>
      <trkpt lat="44.43307" lon="3.91728">
        <ele>674</ele>
        <time>2019-07-09T22:27:29 02:00</time>
      </trkpt>
      <trkpt lat="44.43111" lon="3.91797">
        <ele>683</ele>
        <time>2019-07-09T22:27:34 02:00</time>
      </trkpt>
      <trkpt lat="44.42645" lon="3.91488">
        <ele>707</ele>
        <time>2019-07-09T22:27:39 02:00</time>
      </trkpt>
      <trkpt lat="44.42431" lon="3.91453">
        <ele>712</ele>
        <time>2019-07-09T22:27:44 02:00</time>
      </trkpt>
      <trkpt lat="44.42173" lon="3.9105">
        <ele>746</ele>
        <time>2019-07-09T22:27:49 02:00</time>
      </trkpt>
      <trkpt lat="44.41959" lon="3.91007">
        <ele>745</ele>
        <time>2019-07-09T22:27:54 02:00</time>
      </trkpt>
      <trkpt lat="44.42001" lon="3.90844">
        <ele>786</ele>
        <time>2019-07-09T22:27:59 02:00</time>
      </trkpt>
      <trkpt lat="44.41278" lon="3.9087">
        <ele>849</ele>
        <time>2019-07-09T22:28:04 02:00</time>
      </trkpt>
      <trkpt lat="44.4107" lon="3.90698">
        <ele>830</ele>
        <time>2019-07-09T22:28:09 02:00</time>
      </trkpt>
      <trkpt lat="44.41217" lon="3.90724">
        <ele>886</ele>
        <time>2019-07-09T22:28:14 02:00</time>
      </trkpt>
      <trkpt lat="44.41284" lon="3.90629">
        <ele>920</ele>
        <time>2019-07-09T22:28:19 02:00</time>
      </trkpt>
      <trkpt lat="44.41143" lon="3.89711">
        <ele>972</ele>
        <time>2019-07-09T22:28:24 02:00</time>
      </trkpt>
      <trkpt lat="44.41027" lon="3.89548">
        <ele>997</ele>
        <time>2019-07-09T22:28:29 02:00</time>
      </trkpt>
      <trkpt lat="44.40971" lon="3.88904">
        <ele>1030</ele>
        <time>2019-07-09T22:28:34 02:00</time>
      </trkpt>
      <trkpt lat="44.41051" lon="3.88595">
        <ele>1048</ele>
        <time>2019-07-09T22:28:39 02:00</time>
      </trkpt>
      <trkpt lat="44.40959" lon="3.8802">
        <ele>1072</ele>
        <time>2019-07-09T22:28:44 02:00</time>
      </trkpt>
      <trkpt lat="44.40659" lon="3.87591">
        <ele>1109</ele>
        <time>2019-07-09T22:28:49 02:00</time>
      </trkpt>
      <trkpt lat="44.4064" lon="3.87368">
        <ele>1138</ele>
        <time>2019-07-09T22:28:54 02:00</time>
      </trkpt>
      <trkpt lat="44.40806" lon="3.87488">
        <ele>1182</ele>
        <time>2019-07-09T22:28:59 02:00</time>
      </trkpt>
      <trkpt lat="44.40548" lon="3.86638">
        <ele>1225</ele>
        <time>2019-07-09T22:29:04 02:00</time>
      </trkpt>
      <trkpt lat="44.40358" lon="3.86964">
        <ele>1219</ele>
        <time>2019-07-09T22:29:09 02:00</time>
      </trkpt>
      <trkpt lat="44.40223" lon="3.87737">
        <ele>1284</ele>
        <time>2019-07-09T22:29:14 02:00</time>
      </trkpt>
      <trkpt lat="44.39868" lon="3.882">
        <ele>1304</ele>
        <time>2019-07-09T22:29:19 02:00</time>
      </trkpt>
      <trkpt lat="44.39708" lon="3.88647">
        <ele>1359</ele>
        <time>2019-07-09T22:29:24 02:00</time>
      </trkpt>
      <trkpt lat="44.39635" lon="3.8881">
        <ele>1395</ele>
        <time>2019-07-09T22:29:29 02:00</time>
      </trkpt>
      <trkpt lat="44.39199" lon="3.89436">
        <ele>1431</ele>
        <time>2019-07-09T22:29:34 02:00</time>
      </trkpt>
      <trkpt lat="44.39211" lon="3.89196">
        <ele>1448</ele>
        <time>2019-07-09T22:29:39 02:00</time>
      </trkpt>
      <trkpt lat="44.38598" lon="3.90191">
        <ele>1477</ele>
        <time>2019-07-09T22:29:44 02:00</time>
      </trkpt>
      <trkpt lat="44.38623" lon="3.90792">
        <ele>1441</ele>
        <time>2019-07-09T22:29:49 02:00</time>
      </trkpt>
      <trkpt lat="44.37874" lon="3.91307">
        <ele>1389</ele>
        <time>2019-07-09T22:29:54 02:00</time>
      </trkpt>
      <trkpt lat="44.35923" lon="3.91805">
        <ele>1254</ele>
        <time>2019-07-09T22:29:59 02:00</time>
      </trkpt>
      <trkpt lat="44.36635" lon="3.91788">
        <ele>1212</ele>
        <time>2019-07-09T22:30:04 02:00</time>
      </trkpt>
      <trkpt lat="44.36979" lon="3.91994">
        <ele>1184</ele>
        <time>2019-07-09T22:30:09 02:00</time>
      </trkpt>
      <trkpt lat="44.36979" lon="3.92389">
        <ele>1139</ele>
        <time>2019-07-09T22:30:14 02:00</time>
      </trkpt>
      <trkpt lat="44.36758" lon="3.91994">
        <ele>1134</ele>
        <time>2019-07-09T22:30:19 02:00</time>
      </trkpt>
      <trkpt lat="44.36255" lon="3.92097">
        <ele>1108</ele>
        <time>2019-07-09T22:30:24 02:00</time>
      </trkpt>
      <trkpt lat="44.36782" lon="3.92286">
        <ele>1058</ele>
        <time>2019-07-09T22:30:29 02:00</time>
      </trkpt>
      <trkpt lat="44.36144" lon="3.92372">
        <ele>999</ele>
        <time>2019-07-09T22:30:34 02:00</time>
      </trkpt>
      <trkpt lat="44.36365" lon="3.92526">
        <ele>930</ele>
        <time>2019-07-09T22:30:39 02:00</time>
      </trkpt>
      <trkpt lat="44.3526" lon="3.92732">
        <ele>868</ele>
        <time>2019-07-09T22:30:44 02:00</time>
      </trkpt>
      <trkpt lat="44.34868" lon="3.92869">
        <ele>834</ele>
        <time>2019-07-09T22:30:49 02:00</time>
      </trkpt>
      <trkpt lat="44.3515" lon="3.93367">
        <ele>774</ele>
        <time>2019-07-09T22:30:54 02:00</time>
      </trkpt>
      <trkpt lat="44.34634" lon="3.93041">
        <ele>721</ele>
        <time>2019-07-09T22:30:59 02:00</time>
      </trkpt>
      <trkpt lat="44.35064" lon="3.93642">
        <ele>694</ele>
        <time>2019-07-09T22:31:04 02:00</time>
      </trkpt>
      <trkpt lat="44.35322" lon="3.93402">
        <ele>717</ele>
        <time>2019-07-09T22:31:09 02:00</time>
      </trkpt>
      <trkpt lat="44.35395" lon="3.93728">
        <ele>648</ele>
        <time>2019-07-09T22:31:14 02:00</time>
      </trkpt>
      <trkpt lat="44.34966" lon="3.93899">
        <ele>643</ele>
        <time>2019-07-09T22:31:19 02:00</time>
      </trkpt>
      <trkpt lat="44.35383" lon="3.93899">
        <ele>603</ele>
        <time>2019-07-09T22:31:24 02:00</time>
      </trkpt>
      <trkpt lat="44.35273" lon="3.94517">
        <ele>544</ele>
        <time>2019-07-09T22:31:29 02:00</time>
      </trkpt>
      <trkpt lat="44.35076" lon="3.94672">
        <ele>530</ele>
        <time>2019-07-09T22:31:34 02:00</time>
      </trkpt>
      <trkpt lat="44.35346" lon="3.94775">
        <ele>526</ele>
        <time>2019-07-09T22:31:39 02:00</time>
      </trkpt>
      <trkpt lat="44.35886" lon="3.94346">
        <ele>613</ele>
        <time>2019-07-09T22:31:44 02:00</time>
      </trkpt>
      <trkpt lat="44.36255" lon="3.93848">
        <ele>681</ele>
        <time>2019-07-09T22:31:49 02:00</time>
      </trkpt>
      <trkpt lat="44.37028" lon="3.93951">
        <ele>700</ele>
        <time>2019-07-09T22:31:54 02:00</time>
      </trkpt>
      <trkpt lat="44.37899" lon="3.93831">
        <ele>663</ele>
        <time>2019-07-09T22:31:59 02:00</time>
      </trkpt>
      <trkpt lat="44.38709" lon="3.93814">
        <ele>654</ele>
        <time>2019-07-09T22:32:04 02:00</time>
      </trkpt>
      <trkpt lat="44.39077" lon="3.93711">
        <ele>616</ele>
        <time>2019-07-09T22:32:09 02:00</time>
      </trkpt>
      <trkpt lat="44.39138" lon="3.9414">
        <ele>583</ele>
        <time>2019-07-09T22:32:14 02:00</time>
      </trkpt>
      <trkpt lat="44.38954" lon="3.94088">
        <ele>563</ele>
        <time>2019-07-09T22:32:19 02:00</time>
      </trkpt>
      <trkpt lat="44.39297" lon="3.94723">
        <ele>519</ele>
        <time>2019-07-09T22:32:24 02:00</time>
      </trkpt>
      <trkpt lat="44.3969" lon="3.9529">
        <ele>490</ele>
        <time>2019-07-09T22:32:29 02:00</time>
      </trkpt>
      <trkpt lat="44.3996" lon="3.95152">
        <ele>479</ele>
        <time>2019-07-09T22:32:34 02:00</time>
      </trkpt>
      <trkpt lat="44.40046" lon="3.95461">
        <ele>453</ele>
        <time>2019-07-09T22:32:39 02:00</time>
      </trkpt>
      <trkpt lat="44.40144" lon="3.95015">
        <ele>443</ele>
        <time>2019-07-09T22:32:44 02:00</time>
      </trkpt>
      <trkpt lat="44.41762" lon="3.94981">
        <ele>490</ele>
        <time>2019-07-09T22:32:49 02:00</time>
      </trkpt>
      <trkpt lat="44.41971" lon="3.9577">
        <ele>542</ele>
        <time>2019-07-09T22:32:54 02:00</time>
      </trkpt>
      <trkpt lat="44.4202" lon="3.95238">
        <ele>525</ele>
        <time>2019-07-09T22:32:59 02:00</time>
      </trkpt>
      <trkpt lat="44.42486" lon="3.95324">
        <ele>586</ele>
        <time>2019-07-09T22:33:04 02:00</time>
      </trkpt>
      <trkpt lat="44.42106" lon="3.94878">
        <ele>549</ele>
        <time>2019-07-09T22:33:09 02:00</time>
      </trkpt>
      <trkpt lat="44.42437" lon="3.94329">
        <ele>582</ele>
        <time>2019-07-09T22:33:14 02:00</time>
      </trkpt>
      <trkpt lat="44.43025" lon="3.93505">
        <ele>667</ele>
        <time>2019-07-09T22:33:19 02:00</time>
      </trkpt>
      <trkpt lat="44.44165" lon="3.93213">
        <ele>593</ele>
        <time>2019-07-09T22:33:24 02:00</time>
      </trkpt>
    </trkseg>
  </trk>
</gpx>